Jesup, IA (50648)

1:42 PM CST on January 26, 2015 (GMT -0600)
Northridge Addition | Change Station
CLOSE
Current Station
Personal Weather Station
Location: Independence, IA
Elevation: 929 ft
Nearby Weather Stations

Elev 929 ft 42.48 °N, 91.89 °W | Updated 2 seconds ago

Overcast
Overcast
35.1 °F
Feels Like 35 °F
N
2.2
Wind Variable Wind from SE
Gusts 3.8 mph

Today
High -- | Low -- °F
--% Chance of Precip.
Yesterday
High -- | Low -- °F
Precip. -- in
7:27 AM 5:14 PM
Waxing Crescent, 46% visible
Pressure 29.75 in
Visibility 9.0 miles
Clouds Overcast 1300 ft
Windchill 35 °F
Dew Point 27 °F
Humidity 73%
Rainfall 0.00 in
Snow Depth Not available.
UV 1 out of 12
Pollen .10 out of 12
Air Quality Not available.
Flu Activity Not available.
METAR KOLZ 261935Z AUTO 18006KT 9SM OVC013 00/M01 A2975 RMK AO2

More Conditions Fewer Conditions

Pressure 29.75 in
Visibility 9.0 miles
Clouds Overcast 1300 ft
Windchill 35 °F
Dew Point 27 °F
Humidity 73%
Rainfall 0.00 in
Snow Depth Not available.
UV 1 out of 12
Pollen .10 out of 12
Air Quality Not available.
Flu Activity Not available.
METAR KOLZ 261935Z AUTO 18006KT 9SM OVC013 00/M01 A2975 RMK AO2

More Conditions Fewer Conditions

10-Day Weather Forecast

Almanac

Astronomy

Jan. 26, 2015 Rise Set
Actual Time
Civil Twilight
Nautical Twilight
Astronomical Twilight
Moon
Length of Visible Light
Length of Day
Tomorrow will be .
, % of the Moon is Illuminated

Today's Extremes

State Highs State Lows

Community

WunderPhotos

Upload Photos

1,790,338 photos uploaded!

WunderBlogs® & News

Nearby

Air Quality

  Air Quality AQ Index Pollutant
Not available.

Snow Depth

Station Depth Elevation

Earthquake Activity

City Distance Mag. Time & Date
Minimum magnitude displayed is 2.5.

Coastal Water Temperatures

Place Temperature

Nearby Weather Stations